sensor_id;sensor_type;location;lat;lon;timestamp;pressure;altitude;pressure_sealevel;temperature;humidity
40117;BME280;25829;50.228;18.936;2023-05-24T00:29:23;98237.59;;;15.95;75.17
40117;BME280;25829;50.228;18.936;2023-05-24T00:32:28;98228.19;;;15.88;74.25
40117;BME280;25829;50.228;18.936;2023-05-24T00:46:46;98235.06;;;15.84;74.69
40117;BME280;25829;50.228;18.936;2023-05-24T01:01:10;98240.81;;;15.75;74.63
40117;BME280;25829;50.228;18.936;2023-05-24T01:05:08;98247.66;;;15.71;74.95
40117;BME280;25829;50.228;18.936;2023-05-24T01:12:39;98246.56;;;15.67;74.24
40117;BME280;25829;50.228;18.936;2023-05-24T01:16:06;98253.97;;;15.65;73.97
40117;BME280;25829;50.228;18.936;2023-05-24T01:29:23;98254.22;;;15.64;73.93
40117;BME280;25829;50.228;18.936;2023-05-24T01:32:26;98261.06;;;15.60;73.62
40117;BME280;25829;50.228;18.936;2023-05-24T01:35:26;98265.91;;;15.63;73.60
40117;BME280;25829;50.228;18.936;2023-05-24T01:38:27;98270.97;;;15.64;73.72
40117;BME280;25829;50.228;18.936;2023-05-24T01:41:39;98268.31;;;15.64;73.73
40117;BME280;25829;50.228;18.936;2023-05-24T01:45:28;98257.31;;;15.55;73.49
40117;BME280;25829;50.228;18.936;2023-05-24T01:51:43;98267.84;;;15.50;73.57
40117;BME280;25829;50.228;18.936;2023-05-24T01:54:52;98279.06;;;15.52;73.42
40117;BME280;25829;50.228;18.936;2023-05-24T01:57:59;98278.47;;;15.50;73.33
40117;BME280;25829;50.228;18.936;2023-05-24T02:01:01;98277.38;;;15.46;73.57
40117;BME280;25829;50.228;18.936;2023-05-24T02:04:02;98278.34;;;15.40;73.83
40117;BME280;25829;50.228;18.936;2023-05-24T02:07:03;98283.66;;;15.40;73.55
40117;BME280;25829;50.228;18.936;2023-05-24T02:10:04;98283.66;;;15.40;73.53
40117;BME280;25829;50.228;18.936;2023-05-24T02:13:06;98287.63;;;15.38;73.76
40117;BME280;25829;50.228;18.936;2023-05-24T02:16:07;98291.78;;;15.33;73.81
40117;BME280;25829;50.228;18.936;2023-05-24T02:19:08;98284.53;;;15.29;73.91
40117;BME280;25829;50.228;18.936;2023-05-24T02:22:09;98295.66;;;15.26;73.91
40117;BME280;25829;50.228;18.936;2023-05-24T02:25:10;98297.16;;;15.22;74.04
40117;BME280;25829;50.228;18.936;2023-05-24T02:28:12;98288.63;;;15.20;73.82
40117;BME280;25829;50.228;18.936;2023-05-24T02:31:13;98289.03;;;15.12;74.30
40117;BME280;25829;50.228;18.936;2023-05-24T02:34:13;98297.72;;;15.07;75.05
40117;BME280;25829;50.228;18.936;2023-05-24T02:37:15;98292.47;;;14.95;74.65
40117;BME280;25829;50.228;18.936;2023-05-24T02:40:16;98296.75;;;14.96;74.35
40117;BME280;25829;50.228;18.936;2023-05-24T02:43:17;98303.94;;;14.96;74.20
40117;BME280;25829;50.228;18.936;2023-05-24T02:46:18;98301.59;;;14.99;74.33
40117;BME280;25829;50.228;18.936;2023-05-24T02:49:18;98299.97;;;14.98;74.35
40117;BME280;25829;50.228;18.936;2023-05-24T02:52:19;98292.47;;;14.95;74.40
40117;BME280;25829;50.228;18.936;2023-05-24T02:55:22;98300.44;;;14.95;74.55
40117;BME280;25829;50.228;18.936;2023-05-24T02:58:23;98292.94;;;14.92;74.38
40117;BME280;25829;50.228;18.936;2023-05-24T03:01:24;98310.03;;;14.96;74.19
40117;BME280;25829;50.228;18.936;2023-05-24T03:04:27;98304.47;;;14.98;74.17
40117;BME280;25829;50.228;18.936;2023-05-24T03:07:29;98313.25;;;14.98;74.13
40117;BME280;25829;50.228;18.936;2023-05-24T03:10:30;98301.97;;;14.91;74.73
40117;BME280;25829;50.228;18.936;2023-05-24T03:13:30;98311.94;;;14.84;74.48
40117;BME280;25829;50.228;18.936;2023-05-24T03:16:31;98315.06;;;14.81;74.54
40117;BME280;25829;50.228;18.936;2023-05-24T03:19:32;98310.34;;;14.83;74.31
40117;BME280;25829;50.228;18.936;2023-05-24T03:22:40;98307.19;;;14.86;74.35
40117;BME280;25829;50.228;18.936;2023-05-24T03:25:41;98311.00;;;14.90;74.21
40117;BME280;25829;50.228;18.936;2023-05-24T03:28:43;98313.38;;;14.92;74.05
40117;BME280;25829;50.228;18.936;2023-05-24T03:31:45;98311.53;;;14.92;74.03
40117;BME280;25829;50.228;18.936;2023-05-24T03:34:46;98318.38;;;14.88;74.27
40117;BME280;25829;50.228;18.936;2023-05-24T03:37:48;98317.81;;;14.86;74.50
40117;BME280;25829;50.228;18.936;2023-05-24T03:40:55;98323.69;;;14.88;74.40
40117;BME280;25829;50.228;18.936;2023-05-24T03:44:02;98323.78;;;14.93;74.04
40117;BME280;25829;50.228;18.936;2023-05-24T03:47:06;98328.63;;;14.96;74.07
40117;BME280;25829;50.228;18.936;2023-05-24T03:50:07;98322.00;;;14.99;74.16
40117;BME280;25829;50.228;18.936;2023-05-24T03:53:08;98318.06;;;15.01;74.00
40117;BME280;25829;50.228;18.936;2023-05-24T03:56:09;98326.31;;;15.00;74.08
40117;BME280;25829;50.228;18.936;2023-05-24T03:59:10;98338.06;;;15.04;74.04
40117;BME280;25829;50.228;18.936;2023-05-24T04:02:13;98331.94;;;15.03;74.14
40117;BME280;25829;50.228;18.936;2023-05-24T04:05:14;98346.50;;;15.01;74.03
40117;BME280;25829;50.228;18.936;2023-05-24T04:08:18;98343.03;;;15.00;74.22
40117;BME280;25829;50.228;18.936;2023-05-24T04:11:19;98341.66;;;14.98;74.34
40117;BME280;25829;50.228;18.936;2023-05-24T04:14:21;98345.13;;;14.98;74.35
40117;BME280;25829;50.228;18.936;2023-05-24T04:17:26;98354.88;;;14.93;74.64
40117;BME280;25829;50.228;18.936;2023-05-24T04:20:29;98365.97;;;14.90;74.59
40117;BME280;25829;50.228;18.936;2023-05-24T04:23:29;98367.16;;;14.82;74.75
40117;BME280;25829;50.228;18.936;2023-05-24T04:26:30;98375.16;;;14.70;74.61
40117;BME280;25829;50.228;18.936;2023-05-24T04:29:33;98380.03;;;14.61;74.57
40117;BME280;25829;50.228;18.936;2023-05-24T04:32:34;98385.94;;;14.52;74.66
40117;BME280;25829;50.228;18.936;2023-05-24T04:35:36;98394.38;;;14.49;74.93
40117;BME280;25829;50.228;18.936;2023-05-24T04:38:38;98393.44;;;14.43;74.83
40117;BME280;25829;50.228;18.936;2023-05-24T04:41:40;98398.22;;;14.29;74.42
40117;BME280;25829;50.228;18.936;2023-05-24T04:44:41;98404.31;;;14.18;74.61
40117;BME280;25829;50.228;18.936;2023-05-24T04:47:42;98400.88;;;14.06;74.62
40117;BME280;25829;50.228;18.936;2023-05-24T04:50:42;98405.50;;;13.99;74.72
40117;BME280;25829;50.228;18.936;2023-05-24T04:53:43;98409.28;;;13.91;74.54
40117;BME280;25829;50.228;18.936;2023-05-24T04:56:44;98417.56;;;13.83;74.80
40117;BME280;25829;50.228;18.936;2023-05-24T04:59:46;98423.00;;;13.76;74.62
40117;BME280;25829;50.228;18.936;2023-05-24T05:02:46;98425.03;;;13.74;74.45
40117;BME280;25829;50.228;18.936;2023-05-24T05:05:47;98425.53;;;13.71;74.24
40117;BME280;25829;50.228;18.936;2023-05-24T05:08:54;98428.84;;;13.66;74.43
40117;BME280;25829;50.228;18.936;2023-05-24T05:11:54;98429.53;;;13.62;74.47
40117;BME280;25829;50.228;18.936;2023-05-24T05:14:58;98431.16;;;13.63;74.25
40117;BME280;25829;50.228;18.936;2023-05-24T05:17:59;98444.63;;;13.61;74.28
40117;BME280;25829;50.228;18.936;2023-05-24T05:21:00;98457.91;;;13.61;73.91
40117;BME280;25829;50.228;18.936;2023-05-24T05:24:02;98461.34;;;13.62;74.09
40117;BME280;25829;50.228;18.936;2023-05-24T05:27:05;98467.19;;;13.52;74.01
40117;BME280;25829;50.228;18.936;2023-05-24T05:30:06;98466.25;;;13.47;74.05
40117;BME280;25829;50.228;18.936;2023-05-24T05:33:10;98476.13;;;13.39;74.21
40117;BME280;25829;50.228;18.936;2023-05-24T05:36:15;98480.97;;;13.31;74.10
40117;BME280;25829;50.228;18.936;2023-05-24T05:39:17;98479.19;;;13.25;74.23
40117;BME280;25829;50.228;18.936;2023-05-24T05:42:18;98491.72;;;13.17;74.19
40117;BME280;25829;50.228;18.936;2023-05-24T05:45:19;98492.56;;;13.11;73.68
40117;BME280;25829;50.228;18.936;2023-05-24T05:48:20;98496.94;;;13.06;73.37
40117;BME280;25829;50.228;18.936;2023-05-24T05:51:21;98499.22;;;13.02;73.60
40117;BME280;25829;50.228;18.936;2023-05-24T05:54:22;98502.53;;;12.98;73.88
40117;BME280;25829;50.228;18.936;2023-05-24T05:57:26;98505.16;;;12.98;73.78
40117;BME280;25829;50.228;18.936;2023-05-24T06:00:26;98503.47;;;13.03;73.65
40117;BME280;25829;50.228;18.936;2023-05-24T06:03:27;98508.53;;;13.05;73.23
40117;BME280;25829;50.228;18.936;2023-05-24T06:06:28;98519.38;;;13.03;72.94
40117;BME280;25829;50.228;18.936;2023-05-24T06:09:32;98518.41;;;12.98;72.50
40117;BME280;25829;50.228;18.936;2023-05-24T06:12:33;98536.22;;;12.90;72.60
40117;BME280;25829;50.228;18.936;2023-05-24T06:15:46;98535.91;;;12.80;72.71
40117;BME280;25829;50.228;18.936;2023-05-24T06:18:49;98535.97;;;12.73;72.60
40117;BME280;25829;50.228;18.936;2023-05-24T06:21:58;98551.50;;;12.70;72.57
40117;BME280;25829;50.228;18.936;2023-05-24T06:24:59;98540.75;;;12.65;72.90
40117;BME280;25829;50.228;18.936;2023-05-24T06:28:00;98552.28;;;12.70;72.68
40117;BME280;25829;50.228;18.936;2023-05-24T06:31:01;98568.78;;;12.72;72.79
40117;BME280;25829;50.228;18.936;2023-05-24T06:34:26;98565.47;;;12.77;72.77
40117;BME280;25829;50.228;18.936;2023-05-24T06:37:27;98569.38;;;12.75;72.52
40117;BME280;25829;50.228;18.936;2023-05-24T06:40:33;98577.97;;;12.70;72.47
40117;BME280;25829;50.228;18.936;2023-05-24T06:43:37;98579.00;;;12.69;72.28
40117;BME280;25829;50.228;18.936;2023-05-24T06:46:38;98580.84;;;12.68;72.45
40117;BME280;25829;50.228;18.936;2023-05-24T06:49:39;98577.44;;;12.61;72.12
40117;BME280;25829;50.228;18.936;2023-05-24T06:52:40;98576.69;;;12.54;72.48
40117;BME280;25829;50.228;18.936;2023-05-24T06:56:01;98583.47;;;12.50;72.63
40117;BME280;25829;50.228;18.936;2023-05-24T08:09:30;98658.59;;;12.74;71.02
40117;BME280;25829;50.228;18.936;2023-05-24T08:12:39;98663.47;;;12.70;71.01
40117;BME280;25829;50.228;18.936;2023-05-24T08:15:46;98664.72;;;12.68;70.56
40117;BME280;25829;50.228;18.936;2023-05-24T08:18:47;98667.59;;;12.66;70.63
40117;BME280;25829;50.228;18.936;2023-05-24T08:21:51;98666.56;;;12.67;70.54
40117;BME280;25829;50.228;18.936;2023-05-24T08:24:52;98679.44;;;12.64;70.91
40117;BME280;25829;50.228;18.936;2023-05-24T08:27:54;98670.88;;;12.62;70.68
40117;BME280;25829;50.228;18.936;2023-05-24T08:30:57;98681.47;;;12.62;70.92
40117;BME280;25829;50.228;18.936;2023-05-24T08:33:58;98681.47;;;12.62;70.56
40117;BME280;25829;50.228;18.936;2023-05-24T08:36:59;98686.53;;;12.63;70.71
40117;BME280;25829;50.228;18.936;2023-05-24T08:46:34;98697.34;;;12.62;70.63
40117;BME280;25829;50.228;18.936;2023-05-24T08:49:42;98703.25;;;12.64;71.22
40117;BME280;25829;50.228;18.936;2023-05-24T08:53:05;98709.34;;;12.64;70.86
40117;BME280;25829;50.228;18.936;2023-05-24T08:56:09;98709.78;;;12.61;70.40
40117;BME280;25829;50.228;18.936;2023-05-24T08:59:10;98716.09;;;12.60;70.34
40117;BME280;25829;50.228;18.936;2023-05-24T09:02:13;98718.75;;;12.60;70.30
40117;BME280;25829;50.228;18.936;2023-05-24T09:05:20;98731.00;;;12.55;70.22
40117;BME280;25829;50.228;18.936;2023-05-24T09:08:27;98736.56;;;12.46;70.22
40117;BME280;25829;50.228;18.936;2023-05-24T09:11:30;98730.00;;;12.49;70.84
40117;BME280;25829;50.228;18.936;2023-05-24T09:14:37;98742.38;;;12.55;70.39
40117;BME280;25829;50.228;18.936;2023-05-24T09:17:43;98742.66;;;12.47;70.04
40117;BME280;25829;50.228;18.936;2023-05-24T09:20:44;98756.13;;;12.39;70.19
40117;BME280;25829;50.228;18.936;2023-05-24T09:23:45;98750.19;;;12.43;70.78
40117;BME280;25829;50.228;18.936;2023-05-24T09:26:54;98745.03;;;12.55;70.54
40117;BME280;25829;50.228;18.936;2023-05-24T09:30:02;98749.47;;;12.61;70.21
40117;BME280;25829;50.228;18.936;2023-05-24T09:33:09;98755.59;;;12.62;69.61
40117;BME280;25829;50.228;18.936;2023-05-24T09:36:10;98760.50;;;12.58;69.52
40117;BME280;25829;50.228;18.936;2023-05-24T09:39:30;98760.84;;;12.68;69.89
40117;BME280;25829;50.228;18.936;2023-05-24T09:42:31;98755.50;;;12.75;69.55
40117;BME280;25829;50.228;18.936;2023-05-24T09:45:40;98763.56;;;12.87;69.64
40117;BME280;25829;50.228;18.936;2023-05-24T09:48:59;98761.94;;;12.86;69.24
40117;BME280;25829;50.228;18.936;2023-05-24T09:52:05;98760.47;;;12.90;69.73
40117;BME280;25829;50.228;18.936;2023-05-24T09:55:26;98765.69;;;13.03;69.72
40117;BME280;25829;50.228;18.936;2023-05-24T09:58:31;98771.97;;;13.09;69.15
40117;BME280;25829;50.228;18.936;2023-05-24T10:01:37;98765.03;;;13.08;68.70
40117;BME280;25829;50.228;18.936;2023-05-24T10:04:45;98774.13;;;13.18;69.26
40117;BME280;25829;50.228;18.936;2023-05-24T10:07:56;98771.44;;;13.25;68.67
40117;BME280;25829;50.228;18.936;2023-05-24T10:11:03;98779.56;;;13.30;68.44
40117;BME280;25829;50.228;18.936;2023-05-24T10:14:05;98772.78;;;13.34;68.46
40117;BME280;25829;50.228;18.936;2023-05-24T10:17:08;98774.19;;;13.37;67.53
40117;BME280;25829;50.228;18.936;2023-05-24T10:20:10;98772.56;;;13.36;67.51
40117;BME280;25829;50.228;18.936;2023-05-24T10:23:14;98783.09;;;13.42;67.89
40117;BME280;25829;50.228;18.936;2023-05-24T10:26:20;98780.81;;;13.46;67.42
40117;BME280;25829;50.228;18.936;2023-05-24T10:32:47;98771.63;;;13.49;67.50
40117;BME280;25829;50.228;18.936;2023-05-24T10:35:49;98776.94;;;13.67;67.65
40117;BME280;25829;50.228;18.936;2023-05-24T10:38:55;98773.88;;;13.88;67.25
40117;BME280;25829;50.228;18.936;2023-05-24T10:41:56;98773.13;;;14.00;66.39
40117;BME280;25829;50.228;18.936;2023-05-24T10:44:56;98779.97;;;14.07;66.16
40117;BME280;25829;50.228;18.936;2023-05-24T10:54:40;98786.81;;;14.15;65.59
40117;BME280;25829;50.228;18.936;2023-05-24T11:00:50;98785.53;;;14.06;65.54
40117;BME280;25829;50.228;18.936;2023-05-24T11:03:51;98793.00;;;14.09;65.79
40117;BME280;25829;50.228;18.936;2023-05-24T11:06:59;98787.88;;;14.14;65.94
40117;BME280;25829;50.228;18.936;2023-05-24T11:10:02;98789.03;;;14.18;65.55
40117;BME280;25829;50.228;18.936;2023-05-24T11:16:38;98789.00;;;14.25;65.47
40117;BME280;25829;50.228;18.936;2023-05-24T11:19:50;98790.16;;;14.29;65.37
40117;BME280;25829;50.228;18.936;2023-05-24T11:22:52;98795.81;;;14.32;65.36
40117;BME280;25829;50.228;18.936;2023-05-24T11:26:03;98789.72;;;14.32;65.24
40117;BME280;25829;50.228;18.936;2023-05-24T11:29:07;98799.22;;;14.21;64.93
40117;BME280;25829;50.228;18.936;2023-05-24T11:32:15;98791.84;;;14.23;65.49
40117;BME280;25829;50.228;18.936;2023-05-24T11:35:25;98791.19;;;14.28;65.28
40117;BME280;25829;50.228;18.936;2023-05-24T11:41:43;98785.88;;;14.28;64.97
40117;BME280;25829;50.228;18.936;2023-05-24T11:51:54;98796.56;;;14.40;65.19
40117;BME280;25829;50.228;18.936;2023-05-24T11:54:58;98792.66;;;14.42;65.52
40117;BME280;25829;50.228;18.936;2023-05-24T11:58:00;98786.44;;;14.48;64.92
40117;BME280;25829;50.228;18.936;2023-05-24T12:01:05;98782.25;;;14.41;64.64
40117;BME280;25829;50.228;18.936;2023-05-24T12:04:07;98790.22;;;14.41;64.81
40117;BME280;25829;50.228;18.936;2023-05-24T12:07:11;98792.19;;;14.45;64.89
40117;BME280;25829;50.228;18.936;2023-05-24T12:10:15;98780.34;;;14.48;64.65
40117;BME280;25829;50.228;18.936;2023-05-24T12:13:26;98786.34;;;14.55;64.83
40117;BME280;25829;50.228;18.936;2023-05-24T12:16:27;98790.75;;;14.61;65.08
40117;BME280;25829;50.228;18.936;2023-05-24T12:19:32;98795.97;;;14.68;64.63
40117;BME280;25829;50.228;18.936;2023-05-24T12:22:47;98790.44;;;14.69;64.33
40117;BME280;25829;50.228;18.936;2023-05-24T12:25:50;98792.50;;;14.67;64.73
40117;BME280;25829;50.228;18.936;2023-05-24T12:28:59;98795.97;;;14.68;64.76
40117;BME280;25829;50.228;18.936;2023-05-24T12:32:01;98804.09;;;14.73;64.83
40117;BME280;25829;50.228;18.936;2023-05-24T12:35:10;98797.16;;;14.72;64.58
40117;BME280;25829;50.228;18.936;2023-05-24T12:38:11;98795.31;;;14.72;64.59
40117;BME280;25829;50.228;18.936;2023-05-24T12:41:11;98790.81;;;14.73;64.54
40117;BME280;25829;50.228;18.936;2023-05-24T12:44:12;98802.81;;;14.75;64.01
40117;BME280;25829;50.228;18.936;2023-05-24T12:47:13;98796.81;;;14.68;64.20
40117;BME280;25829;50.228;18.936;2023-05-24T12:50:13;98811.44;;;14.71;64.04
40117;BME280;25829;50.228;18.936;2023-05-24T12:53:16;98802.91;;;14.69;64.03
40117;BME280;25829;50.228;18.936;2023-05-24T12:56:19;98799.66;;;14.67;64.05
40117;BME280;25829;50.228;18.936;2023-05-24T12:59:20;98798.97;;;14.71;64.44
40117;BME280;25829;50.228;18.936;2023-05-24T13:02:21;98798.06;;;14.66;64.16
40117;BME280;25829;50.228;18.936;2023-05-24T13:05:23;98797.47;;;14.64;64.12
40117;BME280;25829;50.228;18.936;2023-05-24T13:08:26;98795.25;;;14.60;64.48
40117;BME280;25829;50.228;18.936;2023-05-24T13:11:28;98796.53;;;14.58;64.26
40117;BME280;25829;50.228;18.936;2023-05-24T13:14:33;98794.69;;;14.58;nan
40117;BME280;25829;50.228;18.936;2023-05-24T13:17:37;98789.13;;;14.60;64.28
40117;BME280;25829;50.228;18.936;2023-05-24T13:20:38;98788.84;;;14.68;64.40
40117;BME280;25829;50.228;18.936;2023-05-24T13:23:46;98796.28;;;14.59;63.87
40117;BME280;25829;50.228;18.936;2023-05-24T13:26:47;98791.22;;;14.58;64.17
40117;BME280;25829;50.228;18.936;2023-05-24T13:29:48;98785.81;;;14.65;64.45
40117;BME280;25829;50.228;18.936;2023-05-24T13:32:53;98789.84;;;14.67;64.08
40117;BME280;25829;50.228;18.936;2023-05-24T13:35:54;98795.59;;;14.64;63.97
40117;BME280;25829;50.228;18.936;2023-05-24T13:38:57;98787.78;;;14.69;64.14
40117;BME280;25829;50.228;18.936;2023-05-24T13:41:58;98788.94;;;14.73;64.18
40117;BME280;25829;50.228;18.936;2023-05-24T13:45:07;98790.56;;;14.74;64.28
40117;BME280;25829;50.228;18.936;2023-05-24T13:48:14;98791.38;;;14.75;64.10
40117;BME280;25829;50.228;18.936;2023-05-24T13:51:14;98792.66;;;14.72;64.33
40117;BME280;25829;50.228;18.936;2023-05-24T13:54:21;98794.72;;;14.70;64.35
40117;BME280;25829;50.228;18.936;2023-05-24T13:57:22;98800.72;;;14.66;64.46
40117;BME280;25829;50.228;18.936;2023-05-24T14:00:23;98789.72;;;14.62;64.24
40117;BME280;25829;50.228;18.936;2023-05-24T14:03:24;98799.75;;;14.60;64.46
40117;BME280;25829;50.228;18.936;2023-05-24T14:06:25;98803.66;;;14.57;64.32
40117;BME280;25829;50.228;18.936;2023-05-24T14:09:35;98798.81;;;14.54;64.15
40117;BME280;25829;50.228;18.936;2023-05-24T14:12:39;98801.94;;;14.51;64.41
40117;BME280;25829;50.228;18.936;2023-05-24T14:15:41;98804.22;;;14.48;64.48
40117;BME280;25829;50.228;18.936;2023-05-24T14:18:42;98797.63;;;14.50;64.47
40117;BME280;25829;50.228;18.936;2023-05-24T14:21:50;98802.50;;;14.53;64.70
40117;BME280;25829;50.228;18.936;2023-05-24T14:24:53;98798.09;;;14.47;64.47
40117;BME280;25829;50.228;18.936;2023-05-24T14:28:24;98786.88;;;14.45;64.51
40117;BME280;25829;50.228;18.936;2023-05-24T14:31:24;98795.06;;;14.44;64.78
40117;BME280;25829;50.228;18.936;2023-05-24T14:34:28;98803.41;;;14.47;64.35
40117;BME280;25829;50.228;18.936;2023-05-24T14:37:29;98797.94;;;14.42;64.42
40117;BME280;25829;50.228;18.936;2023-05-24T14:40:45;98797.50;;;14.45;64.40
40117;BME280;25829;50.228;18.936;2023-05-24T14:43:50;98801.66;;;14.41;64.62
40117;BME280;25829;50.228;18.936;2023-05-24T14:47:05;98801.06;;;14.39;64.55
40117;BME280;25829;50.228;18.936;2023-05-24T14:50:07;98793.31;;;14.37;64.51
40117;BME280;25829;50.228;18.936;2023-05-24T14:53:20;98798.84;;;14.36;64.68
40117;BME280;25829;50.228;18.936;2023-05-24T14:59:42;98794.41;;;14.30;64.44
40117;BME280;25829;50.228;18.936;2023-05-24T15:02:43;98806.94;;;14.23;64.53
40117;BME280;25829;50.228;18.936;2023-05-24T15:05:44;98803.88;;;14.26;65.13
40117;BME280;25829;50.228;18.936;2023-05-24T15:08:47;98796.63;;;14.33;65.31
40117;BME280;25829;50.228;18.936;2023-05-24T15:11:57;98792.97;;;14.34;64.82
40117;BME280;25829;50.228;18.936;2023-05-24T15:14:58;98798.03;;;14.35;64.74
40117;BME280;25829;50.228;18.936;2023-05-24T15:17:59;98796.44;;;14.34;64.59
40117;BME280;25829;50.228;18.936;2023-05-24T15:21:19;98799.88;;;14.35;64.76
40117;BME280;25829;50.228;18.936;2023-05-24T15:24:32;98801.13;;;14.32;64.88
40117;BME280;25829;50.228;18.936;2023-05-24T15:27:42;98811.53;;;14.34;64.64
40117;BME280;25829;50.228;18.936;2023-05-24T15:30:44;98815.22;;;14.33;65.02
40117;BME280;25829;50.228;18.936;2023-05-24T15:33:46;98811.75;;;14.32;64.93
40117;BME280;25829;50.228;18.936;2023-05-24T15:36:47;98820.75;;;14.31;64.76
40117;BME280;25829;50.228;18.936;2023-05-24T15:39:54;98814.28;;;14.27;64.99
40117;BME280;25829;50.228;18.936;2023-05-24T15:42:54;98818.59;;;14.22;64.82
40117;BME280;25829;50.228;18.936;2023-05-24T15:45:55;98821.91;;;14.17;64.79
40117;BME280;25829;50.228;18.936;2023-05-24T15:49:05;98829.06;;;14.17;64.91
40117;BME280;25829;50.228;18.936;2023-05-24T15:52:06;98824.41;;;14.12;64.56
40117;BME280;25829;50.228;18.936;2023-05-24T15:55:10;98821.56;;;14.13;64.57
40117;BME280;25829;50.228;18.936;2023-05-24T15:58:12;98830.91;;;14.16;64.82
40117;BME280;25829;50.228;18.936;2023-05-24T16:01:22;98834.38;;;14.17;64.84
40117;BME280;25829;50.228;18.936;2023-05-24T16:04:23;98829.28;;;14.15;64.99
40117;BME280;25829;50.228;18.936;2023-05-24T16:07:24;98828.47;;;14.14;64.53
40117;BME280;25829;50.228;18.936;2023-05-24T16:10:37;98826.69;;;14.08;64.71
40117;BME280;25829;50.228;18.936;2023-05-24T16:13:48;98821.31;;;14.15;64.66
40117;BME280;25829;50.228;18.936;2023-05-24T16:21:28;98822.97;;;14.16;64.91
40117;BME280;25829;50.228;18.936;2023-05-24T16:39:43;98839.16;;;14.08;65.05
40117;BME280;25829;50.228;18.936;2023-05-24T16:42:44;98846.06;;;14.09;65.37
40117;BME280;25829;50.228;18.936;2023-05-24T16:45:45;98853.59;;;14.12;65.64
40117;BME280;25829;50.228;18.936;2023-05-24T16:48:46;98861.34;;;14.13;65.16
40117;BME280;25829;50.228;18.936;2023-05-24T16:51:47;98866.84;;;14.12;64.89
40117;BME280;25829;50.228;18.936;2023-05-24T16:54:51;98865.69;;;14.08;65.15
40117;BME280;25829;50.228;18.936;2023-05-24T16:57:52;98863.69;;;14.03;65.05
40117;BME280;25829;50.228;18.936;2023-05-24T17:00:55;98870.03;;;14.02;65.29
40117;BME280;25829;50.228;18.936;2023-05-24T17:03:56;98868.19;;;14.03;65.40
40117;BME280;25829;50.228;18.936;2023-05-24T17:06:57;98882.03;;;14.05;65.32
40117;BME280;25829;50.228;18.936;2023-05-24T17:10:07;98882.28;;;14.03;65.05
40117;BME280;25829;50.228;18.936;2023-05-24T17:13:08;98875.03;;;13.92;65.10
40117;BME280;25829;50.228;18.936;2023-05-24T17:16:09;98878.94;;;13.89;65.28
40117;BME280;25829;50.228;18.936;2023-05-24T17:19:11;98883.44;;;13.89;65.52
40117;BME280;25829;50.228;18.936;2023-05-24T17:22:15;98886.88;;;13.89;65.21
40117;BME280;25829;50.228;18.936;2023-05-24T17:25:15;98885.28;;;13.88;65.17
40117;BME280;25829;50.228;18.936;2023-05-24T17:28:17;98888.75;;;13.89;65.05
40117;BME280;25829;50.228;18.936;2023-05-24T17:31:18;98894.69;;;13.84;65.22
40117;BME280;25829;50.228;18.936;2023-05-24T17:34:18;98898.16;;;13.85;65.19
40117;BME280;25829;50.228;18.936;2023-05-24T17:37:19;98899.03;;;13.79;65.16
40117;BME280;25829;50.228;18.936;2023-05-24T17:40:20;98896.19;;;13.74;65.20
40117;BME280;25829;50.228;18.936;2023-05-24T17:43:22;98901.50;;;13.74;65.32
40117;BME280;25829;50.228;18.936;2023-05-24T17:46:26;98900.13;;;13.71;65.63
40117;BME280;25829;50.228;18.936;2023-05-24T17:49:32;98908.50;;;13.68;65.42
40117;BME280;25829;50.228;18.936;2023-05-24T17:52:33;98901.84;;;13.59;65.21
40117;BME280;25829;50.228;18.936;2023-05-24T17:55:34;98913.91;;;13.55;65.57
40117;BME280;25829;50.228;18.936;2023-05-24T17:58:43;98907.00;;;13.54;65.76
40117;BME280;25829;50.228;18.936;2023-05-24T18:01:45;98913.91;;;13.55;65.75
40117;BME280;25829;50.228;18.936;2023-05-24T18:04:46;98924.50;;;13.55;65.67
40117;BME280;25829;50.228;18.936;2023-05-24T18:07:47;98923.03;;;13.59;65.74
40117;BME280;25829;50.228;18.936;2023-05-24T18:10:48;98927.53;;;13.58;65.73
40117;BME280;25829;50.228;18.936;2023-05-24T18:13:49;98923.84;;;13.59;65.86
40117;BME280;25829;50.228;18.936;2023-05-24T18:16:50;98935.50;;;13.58;66.30
40117;BME280;25829;50.228;18.936;2023-05-24T18:19:51;98940.38;;;13.61;66.16
40117;BME280;25829;50.228;18.936;2023-05-24T18:22:54;98937.06;;;13.66;65.92
40117;BME280;25829;50.228;18.936;2023-05-24T18:25:58;98943.97;;;13.67;65.94
40117;BME280;25829;50.228;18.936;2023-05-24T18:29:02;98942.59;;;13.64;65.78
40117;BME280;25829;50.228;18.936;2023-05-24T18:32:03;98934.63;;;13.64;65.95
40117;BME280;25829;50.228;18.936;2023-05-24T18:35:04;98939.34;;;13.62;65.93
40117;BME280;25829;50.228;18.936;2023-05-24T18:38:08;98950.56;;;13.64;66.03
40117;BME280;25829;50.228;18.936;2023-05-24T18:41:15;98954.00;;;13.65;66.19
40117;BME280;25829;50.228;18.936;2023-05-24T18:44:16;98957.09;;;13.62;66.31
40117;BME280;25829;50.228;18.936;2023-05-24T18:47:17;98953.63;;;13.61;66.12
40117;BME280;25829;50.228;18.936;2023-05-24T18:50:18;98955.84;;;13.64;66.14
40117;BME280;25829;50.228;18.936;2023-05-24T18:53:22;98956.44;;;13.66;66.13
40117;BME280;25829;50.228;18.936;2023-05-24T18:56:25;98959.06;;;13.66;66.48
40117;BME280;25829;50.228;18.936;2023-05-24T18:59:27;98959.31;;;13.65;66.33
40117;BME280;25829;50.228;18.936;2023-05-24T19:02:34;98959.50;;;13.63;66.63
40117;BME280;25829;50.228;18.936;2023-05-24T19:05:44;98963.63;;;13.59;66.35
40117;BME280;25829;50.228;18.936;2023-05-24T19:08:45;98975.25;;;13.58;66.54
40117;BME280;25829;50.228;18.936;2023-05-24T19:11:47;98980.34;;;13.60;66.36
40117;BME280;25829;50.228;18.936;2023-05-24T19:14:51;98977.50;;;13.61;66.33
40117;BME280;25829;50.228;18.936;2023-05-24T19:17:52;98982.19;;;13.59;66.11